sensor_id;sensor_type;location;lat;lon;timestamp;P1;durP1;ratioP1;P2;durP2;ratioP2
14241;SDS011;7205;50.864;12.766;2023-05-01T00:00:49;24.63;;;17.10;;
14241;SDS011;7205;50.864;12.766;2023-05-01T00:03:16;30.77;;;15.87;;
14241;SDS011;7205;50.864;12.766;2023-05-01T00:05:43;23.13;;;16.53;;
14241;SDS011;7205;50.864;12.766;2023-05-01T00:08:10;23.77;;;16.37;;
14241;SDS011;7205;50.864;12.766;2023-05-01T00:10:38;24.17;;;17.17;;
14241;SDS011;7205;50.864;12.766;2023-05-01T00:13:05;21.87;;;15.60;;
14241;SDS011;7205;50.864;12.766;2023-05-01T00:15:32;24.93;;;16.27;;
14241;SDS011;7205;50.864;12.766;2023-05-01T00:18:00;21.03;;;15.53;;
14241;SDS011;7205;50.864;12.766;2023-05-01T00:20:27;26.43;;;17.37;;
14241;SDS011;7205;50.864;12.766;2023-05-01T00:22:54;27.07;;;17.33;;
14241;SDS011;7205;50.864;12.766;2023-05-01T00:25:21;26.27;;;17.27;;
14241;SDS011;7205;50.864;12.766;2023-05-01T00:27:48;23.77;;;16.63;;
14241;SDS011;7205;50.864;12.766;2023-05-01T00:30:16;25.43;;;17.30;;
14241;SDS011;7205;50.864;12.766;2023-05-01T00:32:42;23.07;;;17.37;;
14241;SDS011;7205;50.864;12.766;2023-05-01T00:35:12;23.93;;;17.13;;
14241;SDS011;7205;50.864;12.766;2023-05-01T00:37:38;23.17;;;15.30;;
14241;SDS011;7205;50.864;12.766;2023-05-01T00:40:07;23.70;;;15.80;;
14241;SDS011;7205;50.864;12.766;2023-05-01T00:42:37;21.67;;;15.17;;
14241;SDS011;7205;50.864;12.766;2023-05-01T00:45:08;21.37;;;14.10;;
14241;SDS011;7205;50.864;12.766;2023-05-01T00:47:35;21.03;;;15.07;;
14241;SDS011;7205;50.864;12.766;2023-05-01T00:50:07;19.97;;;13.87;;
14241;SDS011;7205;50.864;12.766;2023-05-01T00:52:36;21.40;;;14.90;;
14241;SDS011;7205;50.864;12.766;2023-05-01T00:55:04;19.50;;;15.00;;
14241;SDS011;7205;50.864;12.766;2023-05-01T00:57:31;21.00;;;14.70;;
14241;SDS011;7205;50.864;12.766;2023-05-01T01:00:01;21.47;;;14.87;;
14241;SDS011;7205;50.864;12.766;2023-05-01T01:02:28;21.67;;;14.40;;
14241;SDS011;7205;50.864;12.766;2023-05-01T01:04:56;18.97;;;14.47;;
14241;SDS011;7205;50.864;12.766;2023-05-01T01:07:25;18.20;;;13.33;;
14241;SDS011;7205;50.864;12.766;2023-05-01T01:10:04;22.13;;;15.00;;
14241;SDS011;7205;50.864;12.766;2023-05-01T01:12:38;20.60;;;15.80;;
14241;SDS011;7205;50.864;12.766;2023-05-01T01:15:16;22.63;;;16.17;;
14241;SDS011;7205;50.864;12.766;2023-05-01T01:17:50;20.70;;;15.63;;
14241;SDS011;7205;50.864;12.766;2023-05-01T01:20:27;21.10;;;16.07;;
14241;SDS011;7205;50.864;12.766;2023-05-01T01:23:00;23.20;;;16.07;;
14241;SDS011;7205;50.864;12.766;2023-05-01T01:26:06;21.97;;;16.10;;
14241;SDS011;7205;50.864;12.766;2023-05-01T01:28:50;21.80;;;15.37;;
14241;SDS011;7205;50.864;12.766;2023-05-01T01:31:31;24.70;;;15.97;;
14241;SDS011;7205;50.864;12.766;2023-05-01T01:34:08;26.23;;;16.20;;
14241;SDS011;7205;50.864;12.766;2023-05-01T01:36:45;21.03;;;14.90;;
14241;SDS011;7205;50.864;12.766;2023-05-01T01:39:22;20.50;;;15.20;;
14241;SDS011;7205;50.864;12.766;2023-05-01T01:41:54;18.93;;;14.90;;
14241;SDS011;7205;50.864;12.766;2023-05-01T01:44:29;20.80;;;14.67;;
14241;SDS011;7205;50.864;12.766;2023-05-01T01:47:00;20.20;;;14.73;;
14241;SDS011;7205;50.864;12.766;2023-05-01T01:49:34;18.67;;;13.67;;
14241;SDS011;7205;50.864;12.766;2023-05-01T01:52:03;21.77;;;14.63;;
14241;SDS011;7205;50.864;12.766;2023-05-01T01:54:34;21.57;;;13.97;;
14241;SDS011;7205;50.864;12.766;2023-05-01T01:57:05;19.17;;;14.17;;
14241;SDS011;7205;50.864;12.766;2023-05-01T01:59:33;22.20;;;14.67;;
14241;SDS011;7205;50.864;12.766;2023-05-01T02:02:01;21.70;;;13.80;;
14241;SDS011;7205;50.864;12.766;2023-05-01T02:04:30;21.77;;;15.13;;
14241;SDS011;7205;50.864;12.766;2023-05-01T02:06:59;27.73;;;18.20;;
14241;SDS011;7205;50.864;12.766;2023-05-01T02:09:27;27.33;;;17.50;;
14241;SDS011;7205;50.864;12.766;2023-05-01T02:11:54;25.30;;;16.50;;
14241;SDS011;7205;50.864;12.766;2023-05-01T02:14:23;24.60;;;15.67;;
14241;SDS011;7205;50.864;12.766;2023-05-01T02:16:52;28.57;;;17.17;;
14241;SDS011;7205;50.864;12.766;2023-05-01T02:19:20;24.73;;;17.43;;
14241;SDS011;7205;50.864;12.766;2023-05-01T02:21:49;26.00;;;17.60;;
14241;SDS011;7205;50.864;12.766;2023-05-01T02:24:20;28.63;;;18.20;;
14241;SDS011;7205;50.864;12.766;2023-05-01T02:26:51;29.77;;;18.67;;
14241;SDS011;7205;50.864;12.766;2023-05-01T02:29:22;32.07;;;18.60;;
14241;SDS011;7205;50.864;12.766;2023-05-01T02:31:49;31.67;;;18.60;;
14241;SDS011;7205;50.864;12.766;2023-05-01T02:34:17;45.37;;;22.80;;
14241;SDS011;7205;50.864;12.766;2023-05-01T02:36:44;66.00;;;32.33;;
14241;SDS011;7205;50.864;12.766;2023-05-01T02:39:10;81.53;;;38.33;;
14241;SDS011;7205;50.864;12.766;2023-05-01T02:41:39;95.23;;;41.63;;
14241;SDS011;7205;50.864;12.766;2023-05-01T02:44:10;83.70;;;38.27;;
14241;SDS011;7205;50.864;12.766;2023-05-01T02:46:37;86.47;;;39.77;;
14241;SDS011;7205;50.864;12.766;2023-05-01T02:49:09;77.23;;;36.03;;
14241;SDS011;7205;50.864;12.766;2023-05-01T02:51:38;56.83;;;29.30;;
14241;SDS011;7205;50.864;12.766;2023-05-01T02:54:06;51.03;;;25.33;;
14241;SDS011;7205;50.864;12.766;2023-05-01T02:56:33;47.03;;;24.87;;
14241;SDS011;7205;50.864;12.766;2023-05-01T02:59:02;44.07;;;23.53;;
14241;SDS011;7205;50.864;12.766;2023-05-01T03:01:29;41.60;;;21.50;;
14241;SDS011;7205;50.864;12.766;2023-05-01T03:03:58;39.63;;;20.47;;
14241;SDS011;7205;50.864;12.766;2023-05-01T03:06:25;33.13;;;18.53;;
14241;SDS011;7205;50.864;12.766;2023-05-01T03:08:53;28.93;;;17.20;;
14241;SDS011;7205;50.864;12.766;2023-05-01T03:11:20;28.53;;;16.20;;
14241;SDS011;7205;50.864;12.766;2023-05-01T03:13:50;29.80;;;17.40;;
14241;SDS011;7205;50.864;12.766;2023-05-01T03:16:18;22.60;;;14.57;;
14241;SDS011;7205;50.864;12.766;2023-05-01T03:18:45;27.17;;;15.23;;
14241;SDS011;7205;50.864;12.766;2023-05-01T03:21:12;22.80;;;14.23;;
14241;SDS011;7205;50.864;12.766;2023-05-01T03:23:39;22.90;;;13.30;;
14241;SDS011;7205;50.864;12.766;2023-05-01T03:26:07;21.23;;;13.23;;
14241;SDS011;7205;50.864;12.766;2023-05-01T03:28:34;21.10;;;13.03;;
14241;SDS011;7205;50.864;12.766;2023-05-01T03:31:01;20.30;;;13.40;;
14241;SDS011;7205;50.864;12.766;2023-05-01T03:33:31;20.83;;;12.33;;
14241;SDS011;7205;50.864;12.766;2023-05-01T03:35:58;20.93;;;12.67;;
14241;SDS011;7205;50.864;12.766;2023-05-01T03:38:26;21.63;;;13.13;;
14241;SDS011;7205;50.864;12.766;2023-05-01T03:41:16;24.30;;;14.10;;
14241;SDS011;7205;50.864;12.766;2023-05-01T03:44:07;22.93;;;14.27;;
14241;SDS011;7205;50.864;12.766;2023-05-01T03:46:40;22.30;;;13.40;;
14241;SDS011;7205;50.864;12.766;2023-05-01T03:49:13;21.57;;;13.07;;
14241;SDS011;7205;50.864;12.766;2023-05-01T03:51:46;16.63;;;12.67;;
14241;SDS011;7205;50.864;12.766;2023-05-01T03:54:13;20.17;;;13.57;;
14241;SDS011;7205;50.864;12.766;2023-05-01T03:57:07;16.30;;;12.30;;
14241;SDS011;7205;50.864;12.766;2023-05-01T03:59:33;18.93;;;12.63;;
14241;SDS011;7205;50.864;12.766;2023-05-01T04:02:01;19.63;;;12.27;;
14241;SDS011;7205;50.864;12.766;2023-05-01T04:04:33;15.97;;;13.03;;
14241;SDS011;7205;50.864;12.766;2023-05-01T04:07:00;18.93;;;13.00;;
14241;SDS011;7205;50.864;12.766;2023-05-01T04:09:27;18.87;;;12.37;;
14241;SDS011;7205;50.864;12.766;2023-05-01T04:11:55;15.73;;;12.17;;
14241;SDS011;7205;50.864;12.766;2023-05-01T04:14:22;19.20;;;13.10;;
14241;SDS011;7205;50.864;12.766;2023-05-01T04:16:49;16.63;;;12.67;;
14241;SDS011;7205;50.864;12.766;2023-05-01T04:19:16;16.33;;;11.87;;
14241;SDS011;7205;50.864;12.766;2023-05-01T04:21:49;19.10;;;12.77;;
14241;SDS011;7205;50.864;12.766;2023-05-01T04:24:16;19.03;;;12.60;;
14241;SDS011;7205;50.864;12.766;2023-05-01T04:26:43;17.70;;;12.70;;
14241;SDS011;7205;50.864;12.766;2023-05-01T04:29:10;20.13;;;13.47;;
14241;SDS011;7205;50.864;12.766;2023-05-01T04:31:37;18.47;;;12.80;;
14241;SDS011;7205;50.864;12.766;2023-05-01T04:34:05;18.37;;;12.70;;
14241;SDS011;7205;50.864;12.766;2023-05-01T04:36:34;18.10;;;12.70;;
14241;SDS011;7205;50.864;12.766;2023-05-01T04:39:03;17.10;;;12.07;;
14241;SDS011;7205;50.864;12.766;2023-05-01T04:41:30;19.33;;;12.70;;
14241;SDS011;7205;50.864;12.766;2023-05-01T04:43:56;18.50;;;12.47;;
14241;SDS011;7205;50.864;12.766;2023-05-01T04:46:23;20.87;;;13.23;;
14241;SDS011;7205;50.864;12.766;2023-05-01T04:48:50;20.37;;;12.80;;
14241;SDS011;7205;50.864;12.766;2023-05-01T04:51:17;17.77;;;13.40;;
14241;SDS011;7205;50.864;12.766;2023-05-01T04:53:44;16.80;;;12.63;;
14241;SDS011;7205;50.864;12.766;2023-05-01T04:56:22;17.70;;;13.20;;
14241;SDS011;7205;50.864;12.766;2023-05-01T04:58:53;17.20;;;12.10;;
14241;SDS011;7205;50.864;12.766;2023-05-01T05:01:23;19.30;;;13.63;;
14241;SDS011;7205;50.864;12.766;2023-05-01T05:03:50;17.13;;;12.40;;
14241;SDS011;7205;50.864;12.766;2023-05-01T05:06:17;19.57;;;13.50;;
14241;SDS011;7205;50.864;12.766;2023-05-01T05:08:44;18.17;;;12.73;;
14241;SDS011;7205;50.864;12.766;2023-05-01T05:11:11;16.77;;;12.33;;
14241;SDS011;7205;50.864;12.766;2023-05-01T05:14:08;18.27;;;11.80;;
14241;SDS011;7205;50.864;12.766;2023-05-01T05:16:35;16.97;;;12.70;;
14241;SDS011;7205;50.864;12.766;2023-05-01T05:19:02;15.20;;;12.17;;
14241;SDS011;7205;50.864;12.766;2023-05-01T05:21:34;14.97;;;11.63;;
14241;SDS011;7205;50.864;12.766;2023-05-01T05:24:02;16.83;;;12.43;;
14241;SDS011;7205;50.864;12.766;2023-05-01T05:26:29;14.70;;;11.47;;
14241;SDS011;7205;50.864;12.766;2023-05-01T05:29:01;18.47;;;11.63;;
14241;SDS011;7205;50.864;12.766;2023-05-01T05:31:30;16.90;;;13.03;;
14241;SDS011;7205;50.864;12.766;2023-05-01T05:33:57;17.23;;;12.07;;
14241;SDS011;7205;50.864;12.766;2023-05-01T05:36:24;16.40;;;12.50;;
14241;SDS011;7205;50.864;12.766;2023-05-01T05:38:52;16.20;;;11.47;;
14241;SDS011;7205;50.864;12.766;2023-05-01T05:41:19;16.43;;;12.40;;
14241;SDS011;7205;50.864;12.766;2023-05-01T05:43:50;18.67;;;12.57;;
14241;SDS011;7205;50.864;12.766;2023-05-01T05:46:18;15.70;;;11.60;;
14241;SDS011;7205;50.864;12.766;2023-05-01T05:48:46;15.40;;;12.53;;
14241;SDS011;7205;50.864;12.766;2023-05-01T05:51:13;17.10;;;11.93;;
14241;SDS011;7205;50.864;12.766;2023-05-01T05:53:44;14.87;;;11.77;;
14241;SDS011;7205;50.864;12.766;2023-05-01T05:56:11;17.73;;;12.57;;
14241;SDS011;7205;50.864;12.766;2023-05-01T05:58:38;16.37;;;12.67;;
14241;SDS011;7205;50.864;12.766;2023-05-01T06:01:09;14.83;;;11.60;;
14241;SDS011;7205;50.864;12.766;2023-05-01T06:03:37;15.07;;;11.23;;
14241;SDS011;7205;50.864;12.766;2023-05-01T06:06:06;12.07;;;9.00;;
14241;SDS011;7205;50.864;12.766;2023-05-01T06:08:32;15.60;;;8.87;;
14241;SDS011;7205;50.864;12.766;2023-05-01T06:11:03;8.77;;;7.10;;
14241;SDS011;7205;50.864;12.766;2023-05-01T06:13:31;10.50;;;6.93;;
14241;SDS011;7205;50.864;12.766;2023-05-01T06:15:58;8.50;;;6.23;;
14241;SDS011;7205;50.864;12.766;2023-05-01T06:18:26;10.40;;;5.90;;
14241;SDS011;7205;50.864;12.766;2023-05-01T06:20:54;8.97;;;5.60;;
14241;SDS011;7205;50.864;12.766;2023-05-01T06:23:23;8.13;;;5.73;;
14241;SDS011;7205;50.864;12.766;2023-05-01T06:26:13;7.40;;;5.23;;
14241;SDS011;7205;50.864;12.766;2023-05-01T06:28:41;6.63;;;4.93;;
14241;SDS011;7205;50.864;12.766;2023-05-01T06:31:08;9.40;;;5.97;;
14241;SDS011;7205;50.864;12.766;2023-05-01T06:33:41;7.97;;;5.57;;
14241;SDS011;7205;50.864;12.766;2023-05-01T06:36:19;10.23;;;5.97;;
14241;SDS011;7205;50.864;12.766;2023-05-01T06:38:51;5.27;;;4.50;;
14241;SDS011;7205;50.864;12.766;2023-05-01T06:41:17;5.00;;;4.60;;
14241;SDS011;7205;50.864;12.766;2023-05-01T06:43:48;6.50;;;4.93;;
14241;SDS011;7205;50.864;12.766;2023-05-01T06:46:15;8.97;;;5.20;;
14241;SDS011;7205;50.864;12.766;2023-05-01T06:48:42;6.97;;;4.50;;
14241;SDS011;7205;50.864;12.766;2023-05-01T06:51:12;5.93;;;5.33;;
14241;SDS011;7205;50.864;12.766;2023-05-01T06:53:40;7.83;;;6.07;;
14241;SDS011;7205;50.864;12.766;2023-05-01T06:56:08;10.70;;;9.30;;
14241;SDS011;7205;50.864;12.766;2023-05-01T06:58:35;13.33;;;9.73;;
14241;SDS011;7205;50.864;12.766;2023-05-01T07:01:02;11.87;;;6.90;;
14241;SDS011;7205;50.864;12.766;2023-05-01T07:03:29;8.23;;;5.87;;
14241;SDS011;7205;50.864;12.766;2023-05-01T07:06:00;9.53;;;6.80;;
14241;SDS011;7205;50.864;12.766;2023-05-01T07:08:27;6.07;;;4.90;;
14241;SDS011;7205;50.864;12.766;2023-05-01T07:10:54;11.13;;;7.37;;
14241;SDS011;7205;50.864;12.766;2023-05-01T07:13:22;9.80;;;8.03;;
14241;SDS011;7205;50.864;12.766;2023-05-01T07:15:50;11.43;;;9.40;;
14241;SDS011;7205;50.864;12.766;2023-05-01T07:18:17;5.20;;;4.70;;
14241;SDS011;7205;50.864;12.766;2023-05-01T07:20:44;6.87;;;4.43;;
14241;SDS011;7205;50.864;12.766;2023-05-01T07:23:11;7.10;;;4.73;;
14241;SDS011;7205;50.864;12.766;2023-05-01T07:25:38;5.83;;;4.47;;
14241;SDS011;7205;50.864;12.766;2023-05-01T07:28:05;7.60;;;4.57;;
14241;SDS011;7205;50.864;12.766;2023-05-01T07:30:34;5.83;;;4.53;;
14241;SDS011;7205;50.864;12.766;2023-05-01T07:33:01;6.80;;;4.93;;
14241;SDS011;7205;50.864;12.766;2023-05-01T07:35:29;5.77;;;5.17;;
14241;SDS011;7205;50.864;12.766;2023-05-01T07:37:56;6.03;;;5.40;;
14241;SDS011;7205;50.864;12.766;2023-05-01T07:40:23;6.10;;;5.13;;
14241;SDS011;7205;50.864;12.766;2023-05-01T07:42:50;6.50;;;5.10;;
14241;SDS011;7205;50.864;12.766;2023-05-01T07:45:17;7.30;;;5.80;;
14241;SDS011;7205;50.864;12.766;2023-05-01T07:47:45;7.53;;;6.70;;
14241;SDS011;7205;50.864;12.766;2023-05-01T07:50:12;8.63;;;6.10;;
14241;SDS011;7205;50.864;12.766;2023-05-01T07:52:39;10.60;;;7.50;;
14241;SDS011;7205;50.864;12.766;2023-05-01T07:55:06;10.17;;;7.30;;
14241;SDS011;7205;50.864;12.766;2023-05-01T07:57:34;8.20;;;6.57;;
14241;SDS011;7205;50.864;12.766;2023-05-01T08:00:01;8.83;;;6.37;;
14241;SDS011;7205;50.864;12.766;2023-05-01T08:02:38;7.37;;;6.50;;
14241;SDS011;7205;50.864;12.766;2023-05-01T08:05:07;10.07;;;8.43;;
14241;SDS011;7205;50.864;12.766;2023-05-01T08:07:35;8.67;;;7.37;;
14241;SDS011;7205;50.864;12.766;2023-05-01T08:10:01;11.60;;;8.60;;
14241;SDS011;7205;50.864;12.766;2023-05-01T08:12:28;11.50;;;8.47;;
14241;SDS011;7205;50.864;12.766;2023-05-01T08:14:56;13.63;;;8.10;;
14241;SDS011;7205;50.864;12.766;2023-05-01T08:17:22;9.40;;;7.87;;
14241;SDS011;7205;50.864;12.766;2023-05-01T08:19:49;10.43;;;8.33;;
14241;SDS011;7205;50.864;12.766;2023-05-01T08:22:21;9.50;;;7.67;;
14241;SDS011;7205;50.864;12.766;2023-05-01T08:24:49;9.70;;;8.53;;
14241;SDS011;7205;50.864;12.766;2023-05-01T08:27:15;10.83;;;8.33;;
14241;SDS011;7205;50.864;12.766;2023-05-01T08:29:42;12.70;;;8.63;;
14241;SDS011;7205;50.864;12.766;2023-05-01T08:32:09;9.87;;;8.17;;
14241;SDS011;7205;50.864;12.766;2023-05-01T08:34:36;9.33;;;8.10;;
14241;SDS011;7205;50.864;12.766;2023-05-01T08:37:03;8.13;;;7.30;;
14241;SDS011;7205;50.864;12.766;2023-05-01T08:39:31;9.17;;;7.73;;
14241;SDS011;7205;50.864;12.766;2023-05-01T08:41:58;9.47;;;7.80;;
14241;SDS011;7205;50.864;12.766;2023-05-01T08:44:25;9.50;;;6.67;;
14241;SDS011;7205;50.864;12.766;2023-05-01T08:46:55;10.27;;;7.30;;
14241;SDS011;7205;50.864;12.766;2023-05-01T08:49:32;9.00;;;6.00;;
14241;SDS011;7205;50.864;12.766;2023-05-01T08:52:00;7.43;;;5.93;;
14241;SDS011;7205;50.864;12.766;2023-05-01T08:54:28;6.87;;;5.77;;
14241;SDS011;7205;50.864;12.766;2023-05-01T08:56:58;6.57;;;5.97;;
14241;SDS011;7205;50.864;12.766;2023-05-01T08:59:28;5.87;;;5.17;;
14241;SDS011;7205;50.864;12.766;2023-05-01T09:01:59;6.17;;;4.30;;
14241;SDS011;7205;50.864;12.766;2023-05-01T09:04:28;4.80;;;4.30;;
14241;SDS011;7205;50.864;12.766;2023-05-01T09:06:57;4.30;;;3.97;;
14241;SDS011;7205;50.864;12.766;2023-05-01T09:09:26;4.57;;;4.17;;
14241;SDS011;7205;50.864;12.766;2023-05-01T09:11:53;5.87;;;4.37;;
14241;SDS011;7205;50.864;12.766;2023-05-01T09:14:23;7.83;;;4.17;;
14241;SDS011;7205;50.864;12.766;2023-05-01T09:16:50;4.40;;;4.00;;
14241;SDS011;7205;50.864;12.766;2023-05-01T09:19:17;6.20;;;3.70;;
14241;SDS011;7205;50.864;12.766;2023-05-01T09:21:45;5.10;;;4.13;;
14241;SDS011;7205;50.864;12.766;2023-05-01T09:24:12;6.60;;;4.87;;
14241;SDS011;7205;50.864;12.766;2023-05-01T09:26:40;4.60;;;3.90;;
14241;SDS011;7205;50.864;12.766;2023-05-01T09:29:07;4.20;;;3.90;;
14241;SDS011;7205;50.864;12.766;2023-05-01T09:31:35;5.50;;;4.10;;
14241;SDS011;7205;50.864;12.766;2023-05-01T09:34:03;7.00;;;4.27;;
14241;SDS011;7205;50.864;12.766;2023-05-01T09:36:31;4.70;;;3.90;;
14241;SDS011;7205;50.864;12.766;2023-05-01T09:38:59;5.90;;;4.80;;
14241;SDS011;7205;50.864;12.766;2023-05-01T09:41:27;4.30;;;3.90;;
14241;SDS011;7205;50.864;12.766;2023-05-01T09:43:56;5.13;;;3.60;;
14241;SDS011;7205;50.864;12.766;2023-05-01T09:46:23;3.77;;;3.40;;
14241;SDS011;7205;50.864;12.766;2023-05-01T09:48:54;4.87;;;4.07;;
14241;SDS011;7205;50.864;12.766;2023-05-01T09:51:22;3.90;;;3.50;;
14241;SDS011;7205;50.864;12.766;2023-05-01T09:53:52;4.87;;;3.97;;
14241;SDS011;7205;50.864;12.766;2023-05-01T09:56:21;3.97;;;3.67;;
14241;SDS011;7205;50.864;12.766;2023-05-01T09:58:49;6.43;;;4.50;;
14241;SDS011;7205;50.864;12.766;2023-05-01T10:01:17;11.93;;;5.20;;
14241;SDS011;7205;50.864;12.766;2023-05-01T10:03:44;5.20;;;4.80;;
14241;SDS011;7205;50.864;12.766;2023-05-01T10:06:24;4.50;;;4.10;;
14241;SDS011;7205;50.864;12.766;2023-05-01T10:08:52;3.90;;;3.60;;
14241;SDS011;7205;50.864;12.766;2023-05-01T10:11:19;6.30;;;4.60;;
14241;SDS011;7205;50.864;12.766;2023-05-01T10:16:34;5.40;;;4.73;;
14241;SDS011;7205;50.864;12.766;2023-05-01T10:19:01;4.90;;;4.40;;
14241;SDS011;7205;50.864;12.766;2023-05-01T10:21:42;6.57;;;3.90;;
14241;SDS011;7205;50.864;12.766;2023-05-01T10:24:24;4.20;;;3.77;;
14241;SDS011;7205;50.864;12.766;2023-05-01T10:26:54;4.77;;;3.60;;
14241;SDS011;7205;50.864;12.766;2023-05-01T10:29:34;5.83;;;3.97;;
14241;SDS011;7205;50.864;12.766;2023-05-01T10:32:09;4.20;;;3.90;;
14241;SDS011;7205;50.864;12.766;2023-05-01T10:34:41;5.03;;;3.60;;
14241;SDS011;7205;50.864;12.766;2023-05-01T10:37:18;4.97;;;3.47;;
14241;SDS011;7205;50.864;12.766;2023-05-01T10:39:47;4.80;;;3.50;;
14241;SDS011;7205;50.864;12.766;2023-05-01T10:42:14;5.57;;;3.80;;
14241;SDS011;7205;50.864;12.766;2023-05-01T10:44:42;3.50;;;3.30;;
14241;SDS011;7205;50.864;12.766;2023-05-01T10:50:13;5.10;;;3.60;;
14241;SDS011;7205;50.864;12.766;2023-05-01T10:55:43;3.27;;;2.93;;
14241;SDS011;7205;50.864;12.766;2023-05-01T10:58:11;3.97;;;3.67;;
14241;SDS011;7205;50.864;12.766;2023-05-01T11:00:39;3.90;;;3.60;;
14241;SDS011;7205;50.864;12.766;2023-05-01T12:19:47;3.33;;;3.03;;
14241;SDS011;7205;50.864;12.766;2023-05-01T12:22:14;3.50;;;3.20;;
14241;SDS011;7205;50.864;12.766;2023-05-01T12:24:48;3.47;;;3.07;;
14241;SDS011;7205;50.864;12.766;2023-05-01T12:27:17;3.67;;;3.37;;
14241;SDS011;7205;50.864;12.766;2023-05-01T12:29:44;3.23;;;2.77;;
14241;SDS011;7205;50.864;12.766;2023-05-01T12:51:07;3.60;;;3.30;;
14241;SDS011;7205;50.864;12.766;2023-05-01T12:53:34;3.80;;;3.07;;
14241;SDS011;7205;50.864;12.766;2023-05-01T12:56:18;3.10;;;2.90;;
14241;SDS011;7205;50.864;12.766;2023-05-01T12:58:48;3.30;;;3.10;;
14241;SDS011;7205;50.864;12.766;2023-05-01T13:01:22;3.60;;;3.30;;
14241;SDS011;7205;50.864;12.766;2023-05-01T13:03:50;3.30;;;3.10;;
14241;SDS011;7205;50.864;12.766;2023-05-01T13:13:41;3.43;;;3.23;;
14241;SDS011;7205;50.864;12.766;2023-05-01T13:16:09;3.83;;;3.53;;
14241;SDS011;7205;50.864;12.766;2023-05-01T13:18:44;3.80;;;3.50;;
14241;SDS011;7205;50.864;12.766;2023-05-01T13:21:12;3.87;;;3.50;;
14241;SDS011;7205;50.864;12.766;2023-05-01T13:23:42;3.40;;;3.20;;
14241;SDS011;7205;50.864;12.766;2023-05-01T13:26:23;3.87;;;3.10;;
14241;SDS011;7205;50.864;12.766;2023-05-01T13:28:51;3.53;;;3.23;;
14241;SDS011;7205;50.864;12.766;2023-05-01T13:31:18;3.37;;;2.83;;
14241;SDS011;7205;50.864;12.766;2023-05-01T13:33:45;3.37;;;3.17;;
14241;SDS011;7205;50.864;12.766;2023-05-01T13:36:16;3.87;;;2.77;;
14241;SDS011;7205;50.864;12.766;2023-05-01T13:38:44;3.70;;;3.23;;
14241;SDS011;7205;50.864;12.766;2023-05-01T13:41:20;3.37;;;3.17;;
14241;SDS011;7205;50.864;12.766;2023-05-01T13:43:58;6.27;;;3.13;;
14241;SDS011;7205;50.864;12.766;2023-05-01T13:46:27;4.30;;;3.10;;
14241;SDS011;7205;50.864;12.766;2023-05-01T13:48:54;3.10;;;2.80;;
14241;SDS011;7205;50.864;12.766;2023-05-01T13:51:29;3.10;;;2.90;;
14241;SDS011;7205;50.864;12.766;2023-05-01T13:53:57;4.50;;;2.88;;
14241;SDS011;7205;50.864;12.766;2023-05-01T13:56:25;3.22;;;2.92;;
14241;SDS011;7205;50.864;12.766;2023-05-01T13:58:52;3.42;;;2.97;;
14241;SDS011;7205;50.864;12.766;2023-05-01T14:01:19;5.20;;;2.95;;
14241;SDS011;7205;50.864;12.766;2023-05-01T14:03:48;3.03;;;2.77;;
14241;SDS011;7205;50.864;12.766;2023-05-01T14:06:15;3.70;;;3.30;;
14241;SDS011;7205;50.864;12.766;2023-05-01T14:08:43;3.67;;;3.40;;
14241;SDS011;7205;50.864;12.766;2023-05-01T14:11:12;3.58;;;3.38;;
14241;SDS011;7205;50.864;12.766;2023-05-01T14:13:41;4.03;;;3.35;;
14241;SDS011;7205;50.864;12.766;2023-05-01T14:16:14;3.93;;;3.53;;
14241;SDS011;7205;50.864;12.766;2023-05-01T14:18:47;3.95;;;3.60;;
14241;SDS011;7205;50.864;12.766;2023-05-01T14:21:15;7.47;;;3.60;;
14241;SDS011;7205;50.864;12.766;2023-05-01T14:23:43;3.88;;;3.58;;
14241;SDS011;7205;50.864;12.766;2023-05-01T14:26:10;4.13;;;3.65;;
14241;SDS011;7205;50.864;12.766;2023-05-01T14:28:44;4.20;;;3.90;;
14241;SDS011;7205;50.864;12.766;2023-05-01T14:31:14;5.37;;;4.40;;
14241;SDS011;7205;50.864;12.766;2023-05-01T14:33:42;6.00;;;4.07;;
14241;SDS011;7205;50.864;12.766;2023-05-01T14:36:10;4.80;;;4.30;;
14241;SDS011;7205;50.864;12.766;2023-05-01T14:38:38;4.80;;;4.40;;
14241;SDS011;7205;50.864;12.766;2023-05-01T14:41:05;5.03;;;4.13;;
14241;SDS011;7205;50.864;12.766;2023-05-01T14:43:36;4.50;;;4.03;;
14241;SDS011;7205;50.864;12.766;2023-05-01T14:46:09;4.90;;;4.00;;
14241;SDS011;7205;50.864;12.766;2023-05-01T14:48:38;12.17;;;9.23;;
14241;SDS011;7205;50.864;12.766;2023-05-01T14:51:08;7.40;;;6.77;;
14241;SDS011;7205;50.864;12.766;2023-05-01T14:53:36;9.57;;;8.60;;
14241;SDS011;7205;50.864;12.766;2023-05-01T14:56:06;63.43;;;22.57;;
14241;SDS011;7205;50.864;12.766;2023-05-01T14:58:33;8.93;;;7.20;;
14241;SDS011;7205;50.864;12.766;2023-05-01T15:01:00;19.73;;;14.70;;
14241;SDS011;7205;50.864;12.766;2023-05-01T15:03:28;257.40;;;59.03;;
14241;SDS011;7205;50.864;12.766;2023-05-01T15:05:56;34.73;;;23.70;;
14241;SDS011;7205;50.864;12.766;2023-05-01T15:08:22;41.20;;;26.30;;
14241;SDS011;7205;50.864;12.766;2023-05-01T15:10:50;42.00;;;22.83;;
14241;SDS011;7205;50.864;12.766;2023-05-01T15:13:17;241.47;;;110.60;;
14241;SDS011;7205;50.864;12.766;2023-05-01T15:15:45;33.07;;;19.80;;
14241;SDS011;7205;50.864;12.766;2023-05-01T15:18:12;27.40;;;19.67;;
14241;SDS011;7205;50.864;12.766;2023-05-01T15:20:40;6.73;;;4.13;;
14241;SDS011;7205;50.864;12.766;2023-05-01T15:23:07;42.17;;;27.23;;
14241;SDS011;7205;50.864;12.766;2023-05-01T15:25:34;28.13;;;17.83;;
14241;SDS011;7205;50.864;12.766;2023-05-01T15:28:01;11.30;;;7.50;;
14241;SDS011;7205;50.864;12.766;2023-05-01T15:30:28;14.17;;;8.23;;
14241;SDS011;7205;50.864;12.766;2023-05-01T15:32:55;7.33;;;5.63;;
14241;SDS011;7205;50.864;12.766;2023-05-01T15:35:22;8.90;;;6.23;;
14241;SDS011;7205;50.864;12.766;2023-05-01T15:37:50;8.90;;;6.90;;
14241;SDS011;7205;50.864;12.766;2023-05-01T15:40:18;7.47;;;6.37;;
14241;SDS011;7205;50.864;12.766;2023-05-01T15:42:45;11.30;;;7.50;;
14241;SDS011;7205;50.864;12.766;2023-05-01T15:45:12;13.17;;;8.50;;
14241;SDS011;7205;50.864;12.766;2023-05-01T15:47:39;6.17;;;5.10;;
14241;SDS011;7205;50.864;12.766;2023-05-01T15:50:07;10.37;;;7.90;;
14241;SDS011;7205;50.864;12.766;2023-05-01T15:52:36;6.40;;;4.77;;
14241;SDS011;7205;50.864;12.766;2023-05-01T15:55:04;7.50;;;5.67;;
14241;SDS011;7205;50.864;12.766;2023-05-01T15:57:32;5.50;;;4.97;;
14241;SDS011;7205;50.864;12.766;2023-05-01T15:59:59;7.70;;;6.30;;
14241;SDS011;7205;50.864;12.766;2023-05-01T16:02:29;5.70;;;5.10;;
14241;SDS011;7205;50.864;12.766;2023-05-01T16:04:56;7.00;;;4.73;;
14241;SDS011;7205;50.864;12.766;2023-05-01T16:07:23;6.77;;;5.00;;
14241;SDS011;7205;50.864;12.766;2023-05-01T16:09:51;5.67;;;4.83;;
14241;SDS011;7205;50.864;12.766;2023-05-01T16:12:20;6.83;;;4.93;;
14241;SDS011;7205;50.864;12.766;2023-05-01T16:14:47;6.33;;;4.53;;
14241;SDS011;7205;50.864;12.766;2023-05-01T16:17:14;6.77;;;4.90;;
14241;SDS011;7205;50.864;12.766;2023-05-01T16:19:42;4.33;;;3.90;;
14241;SDS011;7205;50.864;12.766;2023-05-01T16:22:09;6.40;;;4.80;;
14241;SDS011;7205;50.864;12.766;2023-05-01T16:24:36;5.20;;;4.70;;
14241;SDS011;7205;50.864;12.766;2023-05-01T16:27:03;5.77;;;4.10;;
14241;SDS011;7205;50.864;12.766;2023-05-01T16:29:33;5.40;;;4.90;;
14241;SDS011;7205;50.864;12.766;2023-05-01T16:32:02;6.67;;;5.10;;
14241;SDS011;7205;50.864;12.766;2023-05-01T16:34:29;4.47;;;4.07;;
14241;SDS011;7205;50.864;12.766;2023-05-01T16:36:56;4.93;;;4.53;;
14241;SDS011;7205;50.864;12.766;2023-05-01T16:39:23;7.67;;;4.43;;